createdAt,value
2022-12-03T00:00:12.761Z,99748.78
2022-12-03T00:02:41.962Z,99740.84
2022-12-03T00:05:11.637Z,99739.16
2022-12-03T00:07:41.435Z,99740.47
2022-12-03T00:10:10.774Z,99738.56
2022-12-03T00:12:39.394Z,99742.94
2022-12-03T00:15:11.103Z,99737.72
2022-12-03T00:17:40.244Z,99727.63
2022-12-03T00:20:10.655Z,99734.75
2022-12-03T00:22:40.415Z,99736.66
2022-12-03T00:25:10.606Z,99721.09
2022-12-03T00:27:38.996Z,99729.28
2022-12-03T00:30:09.959Z,99736.66
2022-12-03T00:32:38.324Z,99726.78
2022-12-03T00:35:09.709Z,99729.53
2022-12-03T00:37:38.083Z,99727.63
2022-12-03T00:40:10.043Z,99724.91
2022-12-03T00:42:38.383Z,99738.31
2022-12-03T00:45:08.327Z,99729.28
2022-12-03T00:47:36.710Z,99739.16
2022-12-03T00:50:06.049Z,99739.16
2022-12-03T00:52:34.433Z,99735.59
2022-12-03T00:55:02.770Z,99748.41
2022-12-03T00:57:32.479Z,99737.72
2022-12-03T01:00:00.904Z,99733.34
2022-12-03T01:02:29.301Z,99752.47
2022-12-03T01:04:57.928Z,99752.47
2022-12-03T01:07:26.493Z,99748.06
2022-12-03T01:09:54.901Z,99744.72
2022-12-03T01:12:23.385Z,99743.28
2022-12-03T01:14:53.529Z,99748.16
2022-12-03T01:17:22.277Z,99751.09
2022-12-03T01:19:52.530Z,99751.94
2022-12-03T01:22:20.899Z,99751.09
2022-12-03T01:24:49.206Z,99753.63
2022-12-03T01:27:17.630Z,99752.78
2022-12-03T01:29:46.193Z,99752.78
2022-12-03T01:32:19.358Z,99753.38
2022-12-03T01:34:49.458Z,99748.50
2022-12-03T01:37:19.168Z,99748.91
2022-12-03T01:39:48.030Z,99737.13
2022-12-03T01:42:21.174Z,99737.13
2022-12-03T01:44:59.561Z,99740.69
2022-12-03T01:47:33.153Z,99739.84
2022-12-03T01:50:05.344Z,99742.59
2022-12-03T01:52:39.686Z,99745.31
2022-12-03T01:55:14.872Z,99739.84
2022-12-03T01:57:46.996Z,99748.06
2022-12-03T02:00:17.449Z,99742.84
2022-12-03T02:02:56.536Z,99740.31
2022-12-03T02:05:27.959Z,99741.16
2022-12-03T02:07:57.036Z,99737.59
2022-12-03T02:10:29.716Z,99729.38
2022-12-03T02:13:03.620Z,99730.22
2022-12-03T02:15:32.388Z,99736.28
2022-12-03T02:18:02.755Z,99737.97
2022-12-03T02:20:34.263Z,99743.44
2022-12-03T02:23:11.481Z,99736.06
2022-12-03T02:25:41.360Z,99740.47
2022-12-03T02:28:10.842Z,99738.56
2022-12-03T02:30:39.491Z,99740.22
2022-12-03T02:33:07.829Z,99746.31
2022-12-03T02:35:38.348Z,99732.63
2022-12-03T02:38:14.606Z,99739.50
2022-12-03T02:40:46.924Z,99733.22
2022-12-03T02:43:16.721Z,99732.16
2022-12-03T02:45:47.643Z,99726.69
2022-12-03T02:48:20.826Z,99739.28
2022-12-03T02:50:53.344Z,99736.56
2022-12-03T02:53:27.281Z,99745.59
2022-12-03T02:55:59.370Z,99732.16
2022-12-03T02:58:30.727Z,99724.78
2022-12-03T03:01:01.065Z,99732.16
2022-12-03T03:03:32.226Z,99722.06
2022-12-03T03:06:02.962Z,99722.91
2022-12-03T03:08:32.806Z,99732.75
2022-12-03T03:11:03.584Z,99740.72
2022-12-03T03:13:33.637Z,99728.97
2022-12-03T03:16:04.266Z,99723.50
2022-12-03T03:18:33.347Z,99723.03
2022-12-03T03:21:02.446Z,99723.03
2022-12-03T03:23:30.839Z,99724.69
2022-12-03T03:26:04.542Z,99728.50
2022-12-03T03:28:35.689Z,99717.78
2022-12-03T03:31:06.248Z,99719.91
2022-12-03T03:33:35.589Z,99721.59
2022-12-03T03:36:04.385Z,99729.78
2022-12-03T03:38:33.827Z,99723.25
2022-12-03T03:41:05.469Z,99727.41
2022-12-03T03:43:35.848Z,99742.75
2022-12-03T03:46:06.721Z,99752.84
2022-12-03T03:48:36.094Z,99742.25
2022-12-03T03:51:09.003Z,99732.16
2022-12-03T03:53:38.861Z,99732.16
2022-12-03T03:56:09.768Z,99734.06
2022-12-03T03:58:38.892Z,99733.00
2022-12-03T04:01:07.813Z,99728.59
2022-12-03T04:03:36.489Z,99734.31
2022-12-03T04:06:05.296Z,99728.00
2022-12-03T04:08:33.833Z,99726.13
2022-12-03T04:11:19.418Z,99726.13
2022-12-03T04:13:49.273Z,99725.28
2022-12-03T04:16:17.730Z,99731.81
2022-12-03T04:18:45.153Z,99728.25
2022-12-03T04:21:33.704Z,99725.53
2022-12-03T04:24:02.628Z,99728.50
2022-12-03T04:26:48.414Z,99726.34
2022-12-03T04:29:18.227Z,99713.75
2022-12-03T04:32:03.920Z,99715.44
2022-12-03T04:34:49.819Z,99720.91
2022-12-03T04:37:18.287Z,99744.66
2022-12-03T04:39:46.693Z,99728.25
2022-12-03T04:42:15.135Z,99725.28
2022-12-03T04:44:44.917Z,99719.59
2022-12-03T04:47:16.436Z,99731.97
2022-12-03T04:49:47.481Z,99723.50
2022-12-03T04:52:18.499Z,99733.59
2022-12-03T04:54:47.616Z,99720.78
2022-12-03T04:57:16.023Z,99726.25
2022-12-03T04:59:45.716Z,99716.38
2022-12-03T05:02:14.248Z,99721.63
2022-12-03T05:04:42.618Z,99718.28
2022-12-03T05:07:10.994Z,99726.25
2022-12-03T05:09:39.346Z,99719.94
2022-12-03T05:12:08.227Z,99722.44
2022-12-03T05:14:36.619Z,99723.25
2022-12-03T05:17:06.468Z,99718.63
2022-12-03T05:19:52.548Z,99716.75
2022-12-03T05:22:21.020Z,99718.38
2022-12-03T05:24:49.380Z,99712.34
2022-12-03T05:27:23.365Z,99721.38
2022-12-03T05:29:52.577Z,99726.84
2022-12-03T05:32:22.456Z,99726.00
2022-12-03T05:34:51.341Z,99723.25
2022-12-03T05:37:19.980Z,99726.84
2022-12-03T05:39:48.314Z,99721.63
2022-12-03T05:42:34.012Z,99724.34
2022-12-03T05:45:02.523Z,99718.28
2022-12-03T05:47:32.229Z,99729.56
2022-12-03T05:50:00.564Z,99733.97
2022-12-03T05:52:28.980Z,99733.72
2022-12-03T05:54:57.335Z,99737.31
2022-12-03T05:57:25.777Z,99725.28
2022-12-03T05:59:54.155Z,99735.16
2022-12-03T06:02:22.740Z,99740.38
2022-12-03T06:04:52.805Z,99735.75
2022-12-03T06:07:21.403Z,99736.59
2022-12-03T06:09:49.762Z,99738.50
2022-12-03T06:12:18.159Z,99731.13
2022-12-03T06:14:46.573Z,99731.97
2022-12-03T06:17:15.064Z,99741.81
2022-12-03T06:19:43.442Z,99739.09
2022-12-03T06:22:13.217Z,99736.94
2022-12-03T06:24:41.614Z,99735.88
2022-12-03T06:27:09.975Z,99738.38
2022-12-03T06:29:38.548Z,99738.38
2022-12-03T06:32:07.873Z,99740.06
2022-12-03T06:34:36.493Z,99735.41
2022-12-03T06:37:04.907Z,99744.44
2022-12-03T06:39:34.662Z,99740.88
2022-12-03T06:42:03.067Z,99738.97
2022-12-03T06:44:31.442Z,99737.06
2022-12-03T06:46:59.862Z,99740.41
2022-12-03T06:49:28.328Z,99731.94
2022-12-03T06:51:57.067Z,99743.72
2022-12-03T06:54:25.535Z,99736.63
2022-12-03T06:56:55.224Z,99748.34
2022-12-03T06:59:23.625Z,99747.31
2022-12-03T07:01:52.034Z,99756.94
2022-12-03T07:04:20.493Z,99752.31
2022-12-03T07:06:48.869Z,99746.34
2022-12-03T07:09:17.724Z,99746.59
2022-12-03T07:11:46.117Z,99747.44
2022-12-03T07:14:16.017Z,99752.91
2022-12-03T07:16:44.470Z,99754.53
2022-12-03T07:19:13.056Z,99758.38
2022-12-03T07:21:41.483Z,99761.09
2022-12-03T07:24:10.235Z,99756.22
2022-12-03T07:26:38.656Z,99756.81
2022-12-03T07:29:07.044Z,99757.66
2022-12-03T07:31:36.857Z,99755.75
2022-12-03T07:34:05.343Z,99753.63
2022-12-03T07:36:33.731Z,99753.38
2022-12-03T07:39:02.056Z,99750.16
2022-12-03T07:41:30.439Z,99749.91
2022-12-03T07:43:58.815Z,99755.19
2022-12-03T07:46:27.321Z,99745.03
2022-12-03T07:48:57.078Z,99744.00
2022-12-03T07:51:31.824Z,99745.41
2022-12-03T07:54:00.709Z,99737.22
2022-12-03T07:56:29.059Z,99744.09
2022-12-03T07:58:57.503Z,99739.22
2022-12-03T08:01:25.948Z,99744.44
2022-12-03T08:03:54.402Z,99739.56
2022-12-03T08:06:24.067Z,99746.94
2022-12-03T08:08:52.471Z,99739.56
2022-12-03T08:11:20.872Z,99746.94
2022-12-03T08:13:49.387Z,99752.41
2022-12-03T08:16:21.164Z,99757.06
2022-12-03T08:18:51.408Z,99759.56
2022-12-03T08:21:22.163Z,99762.28
2022-12-03T08:23:51.914Z,99770.03
2022-12-03T08:26:25.848Z,99769.53
2022-12-03T08:28:55.007Z,99763.00
2022-12-03T08:31:32.436Z,99757.28
2022-12-03T08:34:17.788Z,99766.09
2022-12-03T08:36:47.287Z,99764.56
2022-12-03T08:39:34.958Z,99765.38
2022-12-03T08:42:30.726Z,99759.09
2022-12-03T08:45:21.672Z,99759.31
2022-12-03T08:47:50.026Z,99771.09
2022-12-03T08:50:28.668Z,99763.97
2022-12-03T08:53:09.795Z,99771.94
2022-12-03T08:55:46.570Z,99770.03
2022-12-03T08:58:23.243Z,99777.41
2022-12-03T09:00:58.026Z,99773.56
2022-12-03T09:03:27.548Z,99782.41
2022-12-03T09:05:55.957Z,99776.69
2022-12-03T09:08:24.295Z,99776.22
2022-12-03T09:10:54.073Z,99782.03
2022-12-03T09:13:22.461Z,99788.91
2022-12-03T09:15:50.817Z,99784.88
2022-12-03T09:18:19.258Z,99783.56
2022-12-03T09:20:47.654Z,99783.69
2022-12-03T09:23:16.000Z,99785.69
2022-12-03T09:25:44.429Z,99778.66
2022-12-03T09:28:14.170Z,99764.53
2022-12-03T09:30:42.776Z,99765.13
2022-12-03T09:33:11.159Z,99771.78
2022-12-03T09:35:39.550Z,99763.09
2022-12-03T09:38:08.031Z,99762.00
2022-12-03T09:40:36.538Z,99769.16
2022-12-03T09:43:05.628Z,99769.25
2022-12-03T09:45:35.673Z,99752.09
2022-12-03T09:48:04.845Z,99761.50
2022-12-03T09:50:34.019Z,99762.06
2022-12-03T09:53:04.718Z,99758.84
2022-12-03T09:55:33.678Z,99757.53
2022-12-03T09:58:02.128Z,99751.81
2022-12-03T10:00:31.833Z,99753.72
2022-12-03T10:03:07.301Z,99750.97
2022-12-03T10:05:36.360Z,99746.34
2022-12-03T10:08:08.471Z,99749.66
2022-12-03T10:10:37.664Z,99754.66
2022-12-03T10:13:07.030Z,99756.66
2022-12-03T10:15:35.536Z,99745.19
2022-12-03T10:18:23.661Z,99732.44
2022-12-03T10:20:53.766Z,99735.84
2022-12-03T10:23:24.651Z,99738.13
2022-12-03T10:25:56.236Z,99737.59
2022-12-03T10:28:34.739Z,99730.56
2022-12-03T10:31:05.929Z,99739.69
2022-12-03T10:33:37.934Z,99731.31
2022-12-03T10:36:23.329Z,99721.53
2022-12-03T10:39:15.659Z,99723.84
2022-12-03T10:41:45.874Z,99721.03
2022-12-03T10:44:20.022Z,99717.91
2022-12-03T10:47:06.900Z,99715.81
2022-12-03T10:49:37.176Z,99714.53
2022-12-03T10:52:06.404Z,99702.56
2022-12-03T10:54:36.495Z,99704.00
2022-12-03T10:57:05.051Z,99697.97
2022-12-03T10:59:35.263Z,99697.97
2022-12-03T11:02:09.239Z,99703.72
2022-12-03T11:04:39.024Z,99706.13
2022-12-03T11:07:15.826Z,99698.66
2022-12-03T11:09:46.604Z,99702.50
2022-12-03T11:12:21.803Z,99696.44
2022-12-03T11:15:08.879Z,99703.47
2022-12-03T11:17:48.184Z,99698.53
2022-12-03T11:21:11.321Z,99694.53
2022-12-03T11:24:28.757Z,99693.63
2022-12-03T11:27:27.204Z,99689.97
2022-12-03T11:30:01.266Z,99687.72
2022-12-03T11:33:22.784Z,99690.63
2022-12-03T11:36:31.769Z,99687.53
2022-12-03T11:39:10.222Z,99686.97
2022-12-03T11:41:38.593Z,99681.16
2022-12-03T11:44:33.736Z,99678.06
2022-12-03T11:47:15.177Z,99679.41
2022-12-03T11:49:50.036Z,99668.69
2022-12-03T11:52:30.199Z,99664.53
2022-12-03T11:55:04.414Z,99663.13
2022-12-03T11:57:38.171Z,99666.34
2022-12-03T12:00:21.994Z,99663.03
2022-12-03T12:02:51.745Z,99651.50
2022-12-03T12:05:28.744Z,99662.44
2022-12-03T12:07:58.737Z,99652.06
2022-12-03T12:10:45.561Z,99654.22
2022-12-03T12:13:54.662Z,99653.66
2022-12-03T12:16:51.451Z,99648.44
2022-12-03T12:19:32.769Z,99651.16
2022-12-03T12:22:30.611Z,99652.50
2022-12-03T12:25:02.399Z,99658.81
2022-12-03T12:27:39.423Z,99646.19
2022-12-03T12:30:14.056Z,99644.28
2022-12-03T12:32:47.370Z,99640.97
2022-12-03T12:35:20.630Z,99635.47
2022-12-03T12:37:58.935Z,99648.34
2022-12-03T12:40:34.069Z,99642.03
2022-12-03T12:43:11.799Z,99644.75
2022-12-03T12:45:44.304Z,99643.34
2022-12-03T12:48:22.761Z,99638.97
2022-12-03T12:50:58.413Z,99646.34
2022-12-03T12:53:29.611Z,99638.34
2022-12-03T12:56:01.826Z,99632.28
2022-12-03T12:58:34.113Z,99632.28
2022-12-03T13:01:08.812Z,99632.28
2022-12-03T13:03:40.657Z,99634.81
2022-12-03T13:06:16.758Z,99637.78
2022-12-03T13:08:49.833Z,99626.81
2022-12-03T13:11:37.072Z,99633.63
2022-12-03T13:14:17.337Z,99633.63
2022-12-03T13:16:45.965Z,99633.63
2022-12-03T13:19:23.756Z,99643.75
2022-12-03T13:21:53.955Z,99636.59
2022-12-03T13:24:33.935Z,99626.75
2022-12-03T13:27:22.989Z,99637.09
2022-12-03T13:29:56.724Z,99643.66
2022-12-03T13:32:31.024Z,99642.00
2022-12-03T13:35:07.593Z,99638.44
2022-12-03T13:37:36.026Z,99645.31
2022-12-03T13:40:21.198Z,99648.31
2022-12-03T13:42:52.618Z,99641.75
2022-12-03T13:45:35.139Z,99653.78
2022-12-03T13:48:07.947Z,99650.22
2022-12-03T13:50:38.622Z,99645.81
2022-12-03T13:53:20.707Z,99635.94
2022-12-03T13:55:51.724Z,99645.81
2022-12-03T13:58:21.490Z,99647.72
2022-12-03T14:00:49.980Z,99647.72
2022-12-03T14:03:18.783Z,99645.81
2022-12-03T14:05:47.155Z,99641.19
2022-12-03T14:08:15.577Z,99649.16
2022-12-03T14:10:44.101Z,99642.56
2022-12-03T14:13:12.476Z,99647.25
2022-12-03T14:15:42.224Z,99652.94
2022-12-03T14:18:10.634Z,99657.63
2022-12-03T14:20:38.988Z,99662.25
2022-12-03T14:23:07.389Z,99662.47
2022-12-03T14:25:35.807Z,99657.25
2022-12-03T14:28:08.615Z,99663.00
2022-12-03T14:30:37.208Z,99665.47
2022-12-03T14:33:07.017Z,99666.06
2022-12-03T14:35:35.468Z,99678.69
2022-12-03T14:38:03.843Z,99673.78
2022-12-03T14:40:32.372Z,99669.16
2022-12-03T14:43:00.785Z,99665.31
2022-12-03T14:45:30.195Z,99672.47
2022-12-03T14:47:58.600Z,99672.47
2022-12-03T14:50:28.383Z,99672.47
2022-12-03T14:52:56.852Z,99665.69
2022-12-03T14:55:25.216Z,99664.59
2022-12-03T14:57:53.611Z,99674.47
2022-12-03T15:00:22.947Z,99669.84
2022-12-03T15:02:51.495Z,99664.34
2022-12-03T15:05:28.038Z,99672.56
2022-12-03T15:07:58.563Z,99675.31
2022-12-03T15:10:27.297Z,99673.97
2022-12-03T15:12:55.730Z,99683.59
2022-12-03T15:15:24.146Z,99678.97
2022-12-03T15:17:52.523Z,99685.59
2022-12-03T15:20:20.889Z,99678.78
2022-12-03T15:22:49.608Z,99681.31
2022-12-03T15:25:24.442Z,99687.00
2022-12-03T15:27:53.227Z,99687.84
2022-12-03T15:30:21.755Z,99680.72
2022-12-03T15:32:50.601Z,99671.41
2022-12-03T15:35:19.374Z,99677.72
2022-12-03T15:37:47.862Z,99672.25
2022-12-03T15:40:19.258Z,99662.34
2022-12-03T15:42:47.742Z,99671.91
2022-12-03T15:45:16.265Z,99670.25
2022-12-03T15:47:45.233Z,99680.38
2022-12-03T15:50:14.811Z,99675.16
2022-12-03T15:52:44.698Z,99668.59
2022-12-03T15:55:14.288Z,99674.06
2022-12-03T15:57:44.670Z,99666.09
2022-12-03T16:00:16.069Z,99666.34
2022-12-03T16:02:52.221Z,99663.63
2022-12-03T16:05:22.723Z,99654.78
2022-12-03T16:07:51.756Z,99658.38
2022-12-03T16:10:21.968Z,99656.72
2022-12-03T16:12:52.662Z,99659.47
2022-12-03T16:15:26.664Z,99666.84
2022-12-03T16:17:56.090Z,99669.59
2022-12-03T16:20:24.493Z,99659.69
2022-12-03T16:22:53.302Z,99661.34
2022-12-03T16:25:22.071Z,99660.25
2022-12-03T16:27:53.707Z,99651.25
2022-12-03T16:30:22.570Z,99650.41
2022-12-03T16:32:51.222Z,99663.00
2022-12-03T16:35:21.548Z,99668.47
2022-12-03T16:37:50.598Z,99663.63
2022-12-03T16:40:19.671Z,99657.31
2022-12-03T16:42:49.142Z,99662.53
2022-12-03T16:45:51.603Z,99665.25
2022-12-03T16:48:21.276Z,99669.09
2022-12-03T16:50:50.050Z,99665.50
2022-12-03T16:53:18.824Z,99655.41
2022-12-03T16:55:48.141Z,99664.41
2022-12-03T16:58:18.886Z,99665.03
2022-12-03T17:00:49.575Z,99665.25
2022-12-03T17:03:19.118Z,99666.69
2022-12-03T17:05:49.319Z,99648.34
2022-12-03T17:08:19.372Z,99649.19
2022-12-03T17:10:48.308Z,99656.28
2022-12-03T17:13:17.454Z,99648.34
2022-12-03T17:15:46.473Z,99647.25
2022-12-03T17:18:17.142Z,99649.97
2022-12-03T17:20:46.327Z,99650.81
2022-12-03T17:23:14.903Z,99654.41
2022-12-03T17:25:45.710Z,99653.56
2022-12-03T17:28:15.368Z,99652.50
2022-12-03T17:30:44.342Z,99652.50
2022-12-03T17:33:14.935Z,99658.81
2022-12-03T17:35:46.249Z,99669.78
2022-12-03T17:38:15.954Z,99658.56
2022-12-03T17:40:45.239Z,99661.28
2022-12-03T17:43:13.637Z,99666.50
2022-12-03T17:45:43.725Z,99662.94
2022-12-03T17:48:13.179Z,99659.97
2022-12-03T17:50:42.853Z,99659.13
2022-12-03T17:53:13.212Z,99664.34
2022-12-03T17:55:44.984Z,99672.34
2022-12-03T17:58:14.590Z,99666.88
2022-12-03T18:00:44.535Z,99670.41
2022-12-03T18:03:13.683Z,99671.25
2022-12-03T18:05:42.417Z,99667.69
2022-12-03T18:08:12.227Z,99672.94
2022-12-03T18:10:41.250Z,99662.19
2022-12-03T18:13:10.222Z,99666.88
2022-12-03T18:15:39.408Z,99661.63
2022-12-03T18:18:08.676Z,99675.31
2022-12-03T18:20:37.650Z,99670.66
2022-12-03T18:23:07.224Z,99684.13
2022-12-03T18:25:38.726Z,99664.94
2022-12-03T18:28:07.954Z,99681.16
2022-12-03T18:30:37.804Z,99674.56
2022-12-03T18:33:08.815Z,99673.50
2022-12-03T18:35:38.737Z,99679.81
2022-12-03T18:38:07.929Z,99689.69
2022-12-03T18:40:41.307Z,99676.81
2022-12-03T18:43:14.979Z,99673.25
2022-12-03T18:45:44.953Z,99674.66
2022-12-03T18:48:20.648Z,99676.06
2022-12-03T18:50:50.034Z,99674.19
2022-12-03T18:53:20.734Z,99681.06
2022-12-03T18:55:51.901Z,99674.75
2022-12-03T18:58:21.453Z,99679.16
2022-12-03T19:00:51.164Z,99681.06
2022-12-03T19:03:21.027Z,99674.50
2022-12-03T19:05:50.585Z,99671.75
2022-12-03T19:08:19.521Z,99673.16
2022-12-03T19:10:59.903Z,99674.00
2022-12-03T19:13:30.133Z,99687.47
2022-12-03T19:16:03.106Z,99686.38
2022-12-03T19:18:34.297Z,99683.66
2022-12-03T19:21:10.894Z,99681.97
2022-12-03T19:23:47.308Z,99680.66
2022-12-03T19:26:30.792Z,99687.22
2022-12-03T19:29:01.277Z,99683.66
2022-12-03T19:31:33.725Z,99688.56
2022-12-03T19:34:04.653Z,99684.13
2022-12-03T19:36:36.294Z,99687.97
2022-12-03T19:39:05.905Z,99688.78
2022-12-03T19:41:38.715Z,99685.47
2022-12-03T19:44:11.127Z,99687.41
2022-12-03T19:46:41.080Z,99694.78
2022-12-03T19:49:11.792Z,99696.69
2022-12-03T19:51:41.850Z,99700.75
2022-12-03T19:54:15.327Z,99702.06
2022-12-03T19:56:47.833Z,99696.59
2022-12-03T19:59:19.870Z,99700.16
2022-12-03T20:01:52.130Z,99699.31
2022-12-03T20:04:22.541Z,99704.59
2022-12-03T20:06:51.935Z,99699.09
2022-12-03T20:09:23.048Z,99700.75
2022-12-03T20:11:54.759Z,99686.78
2022-12-03T20:14:25.229Z,99696.94
2022-12-03T20:16:55.074Z,99702.41
2022-12-03T20:19:24.939Z,99687.88
2022-12-03T20:22:00.705Z,99691.47
2022-12-03T20:24:33.772Z,99691.19
2022-12-03T20:27:06.687Z,99690.38
2022-12-03T20:29:37.300Z,99701.31
2022-12-03T20:32:08.566Z,99685.72
2022-12-03T20:34:39.212Z,99685.72
2022-12-03T20:37:10.009Z,99700.50
2022-12-03T20:39:40.160Z,99687.63
2022-12-03T20:42:12.501Z,99689.53
2022-12-03T20:44:42.274Z,99696.09
2022-12-03T20:47:16.639Z,99691.47
2022-12-03T20:49:45.865Z,99680.72
2022-12-03T20:52:15.933Z,99688.13
2022-12-03T20:54:46.592Z,99679.06
2022-12-03T20:57:20.093Z,99684.78
2022-12-03T20:59:49.012Z,99677.41
2022-12-03T21:02:19.062Z,99678.50
2022-12-03T21:04:48.523Z,99676.81
2022-12-03T21:07:20.058Z,99682.03
2022-12-03T21:09:49.002Z,99691.38
2022-12-03T21:12:20.566Z,99676.00
2022-12-03T21:14:50.209Z,99668.59
2022-12-03T21:17:21.094Z,99692.22
2022-12-03T21:19:50.992Z,99690.53
2022-12-03T21:22:20.126Z,99696.00
2022-12-03T21:24:49.633Z,99695.44
2022-12-03T21:27:21.745Z,99704.50
2022-12-03T21:29:51.908Z,99685.31
2022-12-03T21:32:21.007Z,99691.38
2022-12-03T21:34:49.582Z,99696.84
2022-12-03T21:37:18.587Z,99691.09
2022-12-03T21:39:47.205Z,99701.00
2022-12-03T21:42:18.775Z,99705.75
2022-12-03T21:45:06.963Z,99707.16
2022-12-03T21:47:37.496Z,99695.94
2022-12-03T21:50:09.816Z,99691.03
2022-12-03T21:52:39.835Z,99687.22
2022-12-03T21:55:09.443Z,99685.31
2022-12-03T21:57:38.394Z,99688.06
2022-12-03T22:00:12.215Z,99684.50
2022-12-03T22:02:41.841Z,99688.06
2022-12-03T22:05:12.402Z,99685.06
2022-12-03T22:07:43.557Z,99679.31
2022-12-03T22:10:13.740Z,99691.38
2022-12-03T22:12:42.296Z,99684.81
2022-12-03T22:15:18.459Z,99684.81
2022-12-03T22:17:47.745Z,99681.84
2022-12-03T22:20:16.475Z,99673.63
2022-12-03T22:22:44.879Z,99681.56
2022-12-03T22:25:13.388Z,99679.66
2022-12-03T22:27:41.788Z,99686.81
2022-12-03T22:30:12.597Z,99677.50
2022-12-03T22:32:41.018Z,99686.31
2022-12-03T22:35:10.521Z,99680.56
2022-12-03T22:37:38.887Z,99674.59
2022-12-03T22:40:09.028Z,99672.69
2022-12-03T22:42:37.413Z,99664.47
2022-12-03T22:45:07.435Z,99661.72
2022-12-03T22:47:37.152Z,99660.88
2022-12-03T22:50:06.726Z,99660.03
2022-12-03T22:52:35.104Z,99655.91
2022-12-03T22:55:03.491Z,99650.41
2022-12-03T22:57:32.605Z,99644.94
2022-12-03T23:00:01.000Z,99643.28
2022-12-03T23:02:29.463Z,99647.94
2022-12-03T23:04:59.237Z,99643.28
2022-12-03T23:07:27.711Z,99639.44
2022-12-03T23:09:56.383Z,99646.84
2022-12-03T23:12:24.892Z,99634.78
2022-12-03T23:14:55.189Z,99648.25
2022-12-03T23:17:23.600Z,99651.81
2022-12-03T23:19:52.089Z,99647.44
2022-12-03T23:22:22.078Z,99650.19
2022-12-03T23:24:50.446Z,99634.78
2022-12-03T23:27:18.848Z,99637.53
2022-12-03T23:29:47.224Z,99639.22
2022-12-03T23:32:15.695Z,99639.22
2022-12-03T23:34:44.191Z,99637.28
2022-12-03T23:37:12.614Z,99637.28
2022-12-03T23:39:42.524Z,99637.28
2022-12-03T23:42:11.007Z,99629.66
2022-12-03T23:44:39.384Z,99630.47
2022-12-03T23:47:07.749Z,99628.28
2022-12-03T23:49:36.315Z,99625.31
2022-12-03T23:52:05.168Z,99617.09
2022-12-03T23:54:33.572Z,99617.94
2022-12-03T23:57:03.389Z,99616.25
2022-12-03T23:59:32.120Z,99616.25
